Time;durP1;ratioP1;P1;durP2;ratioP2;P2;SDS_P1;SDS_P2;PMS_P1;PMS_P2;Temp;Humidity;BMP_temperature;BMP_pressure;BME280_temperature;BME280_humidity;BME280_pressure;Samples;Min_cycle;Max_cycle;Signal;HPM_P1;HPM_P2
2022/08/05 00:04:44;;;;;;;10.10;7.33;;;;;;;24.17;52.75;100350.46;3607584;80;98784;-83
2022/08/05 00:09:45;;;;;;;13.30;6.47;;;;;;;24.11;52.76;100345.31;3598962;80;99032;-83
2022/08/05 00:14:46;;;;;;;15.65;7.00;;;;;;;24.04;52.71;100344.21;3604598;80;98738;-84
2022/08/05 00:19:47;;;;;;;12.13;6.75;;;;;;;23.97;53.11;100341.73;3607626;80;98642;-83
2022/08/05 00:24:48;;;;;;;10.35;6.22;;;;;;;23.91;52.95;100336.58;3613613;80;98198;-85
2022/08/05 00:29:49;;;;;;;9.48;5.70;;;;;;;23.86;53.17;100328.75;3594647;81;98941;-84
2022/08/05 00:34:51;;;;;;;10.85;6.87;;;;;;;23.78;53.41;100330.94;3591925;80;98832;-85
2022/08/05 00:39:51;;;;;;;14.93;6.97;;;;;;;23.74;53.70;100329.69;3609193;80;99363;-83
2022/08/05 00:44:52;;;;;;;11.57;6.15;;;;;;;23.68;53.61;100326.56;3595901;81;99004;-84
2022/08/05 00:49:54;;;;;;;10.00;6.50;;;;;;;23.63;53.53;100335.61;3598077;82;98641;-84
2022/08/05 00:54:55;;;;;;;10.08;6.55;;;;;;;23.57;53.49;100329.85;3606614;82;98878;-84
2022/08/05 00:59:56;;;;;;;10.58;6.22;;;;;;;23.52;53.79;100330.47;3594832;81;98964;-84
2022/08/05 01:04:57;;;;;;;9.60;6.47;;;;;;;23.45;53.79;100325.16;3603819;80;99111;-85
2022/08/05 01:09:58;;;;;;;9.88;6.60;;;;;;;23.42;53.93;100321.87;3601460;81;98891;-82
2022/08/05 01:15:04;;;;;;;9.98;5.95;;;;;;;23.36;54.14;100322.34;3606378;81;98766;-83
2022/08/05 01:20:16;;;;;;;8.27;6.07;;;;;;;23.30;54.15;100323.41;3606757;80;100732;-84
2022/08/05 01:25:29;;;;;;;10.38;6.75;;;;;;;23.29;54.54;100319.05;3611706;81;98870;-85
2022/08/05 01:30:34;;;;;;;11.45;7.12;;;;;;;23.26;54.92;100313.73;3608709;80;99419;-86
2022/08/05 01:35:39;;;;;;;10.13;6.00;;;;;;;23.21;54.96;100306.56;3619838;80;99036;-86
2022/08/05 01:40:41;;;;;;;11.10;6.40;;;;;;;23.12;55.00;100304.49;3600184;80;98989;-82
2022/08/05 01:45:42;;;;;;;12.63;7.20;;;;;;;23.06;55.10;100297.91;3550301;82;99437;-85
2022/08/05 01:50:45;;;;;;;11.80;6.47;;;;;;;23.00;55.40;100296.19;3597116;81;98627;-83
2022/08/05 01:55:48;;;;;;;9.60;6.55;;;;;;;22.98;55.81;100287.44;3610861;80;98643;-83
2022/08/05 02:00:51;;;;;;;10.95;6.75;;;;;;;22.86;55.77;100293.34;3594396;80;98611;-86
2022/08/05 02:05:53;;;;;;;13.90;6.15;;;;;;;22.82;56.12;100290.51;3611181;80;99072;-84
2022/08/05 02:10:59;;;;;;;9.95;6.62;;;;;;;22.76;56.38;100282.55;3632877;79;99056;-84
2022/08/05 02:16:05;;;;;;;9.78;6.90;;;;;;;22.67;56.24;100284.70;3627419;79;98839;-86
2022/08/05 02:21:20;;;;;;;10.30;6.83;;;;;;;22.62;56.68;100281.73;3618615;81;98782;-85
2022/08/05 02:26:47;;;;;;;11.03;7.03;;;;;;;22.63;56.89;100281.88;3639331;81;26385;-83
2022/08/05 02:31:50;;;;;;;8.68;6.17;;;;;;;22.51;56.93;100279.34;3614068;80;99065;-86
2022/08/05 02:43:10;;;;;;;9.00;6.17;;;;;;;22.45;57.65;100276.21;3613835;81;98964;-85
2022/08/05 02:48:11;;;;;;;9.83;7.33;;;;;;;22.47;57.97;100270.30;3622574;81;98860;-84
2022/08/05 02:53:14;;;;;;;11.80;6.85;;;;;;;22.38;57.85;100269.43;3645738;80;98926;-85
2022/08/05 02:58:21;;;;;;;10.08;6.12;;;;;;;22.26;58.23;100266.11;3654575;79;99034;-85
2022/08/05 03:03:22;;;;;;;10.50;6.42;;;;;;;22.23;58.74;100267.80;3606404;80;99323;-85
2022/08/05 03:08:24;;;;;;;9.88;6.40;;;;;;;22.25;58.98;100265.95;3628658;81;31715;-85
2022/08/05 03:13:25;;;;;;;8.83;6.00;;;;;;;22.17;58.88;100259.84;3577345;80;98612;-84
2022/08/05 03:18:26;;;;;;;11.75;6.00;;;;;;;22.07;58.96;100256.82;3592349;81;98749;-84
2022/08/05 03:23:28;;;;;;;9.48;6.35;;;;;;;22.07;58.96;100256.82;3582142;81;98933;-85
2022/08/05 03:28:30;;;;;;;10.70;7.20;;;;;;;21.99;59.41;100261.14;3580783;82;98903;-85
2022/08/05 03:33:32;;;;;;;8.15;5.80;;;;;;;21.91;59.39;100254.23;3587848;81;99040;-85
2022/08/05 03:38:33;;;;;;;9.95;6.62;;;;;;;21.76;59.64;100243.42;3583441;80;32230;-86
2022/08/05 03:43:35;;;;;;;10.45;6.90;;;;;;;21.77;60.17;100240.77;3568341;81;98697;-85
2022/08/05 03:48:36;;;;;;;9.13;6.35;;;;;;;21.72;60.02;100240.56;3593482;81;98785;-85
2022/08/05 03:54:04;;;;;;;11.93;6.55;;;;;;;21.63;60.20;100244.06;3586568;80;98851;-85
2022/08/05 03:59:09;;;;;;;10.30;6.78;;;;;;;21.58;60.49;100243.24;3599233;81;99396;-84
2022/08/05 04:04:14;;;;;;;17.32;7.65;;;;;;;21.53;60.64;100249.42;3590847;81;99315;-86
2022/08/05 04:09:16;;;;;;;9.00;6.47;;;;;;;21.52;61.08;100250.67;3603116;80;98965;-85
2022/08/05 04:14:18;;;;;;;9.98;6.50;;;;;;;21.55;61.11;100246.17;3638179;79;98278;-85
2022/08/05 04:19:19;;;;;;;8.38;6.25;;;;;;;21.49;61.11;100243.20;3638850;81;98676;-85
2022/08/05 04:24:21;;;;;;;11.80;7.42;;;;;;;21.52;61.52;100245.06;3635355;79;98570;-83
2022/08/05 04:29:22;;;;;;;11.08;6.60;;;;;;;21.52;61.38;100242.27;3637495;79;99426;-85
2022/08/05 04:34:23;;;;;;;14.05;6.97;;;;;;;21.48;61.42;100238.80;3637548;79;98974;-86
2022/08/05 04:39:24;;;;;;;8.45;6.10;;;;;;;21.50;61.49;100229.35;3638097;81;99313;-86
2022/08/05 04:44:25;;;;;;;10.30;6.50;;;;;;;21.51;61.47;100227.31;3604841;80;98545;-84
2022/08/05 04:49:26;;;;;;;11.05;7.20;;;;;;;21.57;61.61;100229.08;3691723;79;99180;-83
2022/08/05 04:54:28;;;;;;;10.55;7.28;;;;;;;21.59;61.41;100228.00;3638035;80;98901;-84
2022/08/05 04:59:29;;;;;;;10.20;7.15;;;;;;;21.64;61.28;100230.84;3639523;80;98933;-85
2022/08/05 05:04:30;;;;;;;10.18;6.80;;;;;;;21.68;61.04;100229.50;3664571;79;99010;-87
2022/08/05 05:09:31;;;;;;;10.38;6.72;;;;;;;21.73;61.07;100230.92;3629281;80;99376;-86
2022/08/05 05:14:32;;;;;;;12.68;6.35;;;;;;;21.79;61.10;100227.72;3578433;80;98494;-85
2022/08/05 05:19:33;;;;;;;11.65;6.40;;;;;;;21.87;60.78;100227.59;3586201;80;98712;-82
2022/08/05 05:24:34;;;;;;;12.73;6.00;;;;;;;21.98;60.72;100225.96;3594827;80;98779;-83
2022/08/05 05:29:35;;;;;;;9.53;5.55;;;;;;;22.12;60.40;100222.59;3590037;81;99039;-83
2022/08/05 05:34:36;;;;;;;11.65;6.00;;;;;;;22.32;60.21;100225.80;3582397;80;98818;-90
2022/08/05 05:39:36;;;;;;;9.40;6.20;;;;;;;22.65;60.08;100228.89;3585947;81;98997;-84
2022/08/05 05:44:37;;;;;;;11.83;6.00;;;;;;;23.09;59.03;100224.60;3582253;80;98386;-84
2022/08/05 05:49:38;;;;;;;11.25;5.67;;;;;;;23.68;58.40;100226.80;3593585;80;98770;-82
2022/08/05 05:54:39;;;;;;;11.12;5.55;;;;;;;24.30;57.48;100229.34;3580699;81;98748;-85
2022/08/05 05:59:40;;;;;;;9.10;5.90;;;;;;;24.97;56.43;100221.17;3579669;81;99026;-84
2022/08/05 06:04:41;;;;;;;12.70;5.72;;;;;;;25.57;54.97;100223.06;3579643;81;98762;-83
2022/08/05 06:09:42;;;;;;;9.13;5.50;;;;;;;26.21;53.83;100218.33;3582809;81;98941;-82
2022/08/05 06:14:44;;;;;;;11.35;5.28;;;;;;;26.84;52.69;100225.34;3573631;81;98542;-84
2022/08/05 06:19:45;;;;;;;12.60;5.60;;;;;;;27.41;51.67;100220.69;3584978;81;98936;-82
2022/08/05 06:24:46;;;;;;;12.25;5.22;;;;;;;27.87;50.25;100227.13;3574672;81;98832;-85
2022/08/05 06:29:47;;;;;;;10.25;5.55;;;;;;;28.49;49.64;100227.15;3585167;81;98951;-84
2022/08/05 06:34:48;;;;;;;11.40;5.60;;;;;;;28.91;47.59;100225.74;3580397;81;99004;-84
2022/08/05 06:39:49;;;;;;;12.18;5.83;;;;;;;29.29;46.76;100228.64;3578132;81;99024;-83
2022/08/05 06:44:50;;;;;;;9.85;5.08;;;;;;;29.55;46.45;100220.13;3575913;81;99008;-83
2022/08/05 06:49:51;;;;;;;10.55;5.55;;;;;;;29.93;45.21;100220.06;3577724;81;99171;-84
2022/08/05 06:54:52;;;;;;;11.18;5.12;;;;;;;30.06;44.14;100212.58;3590329;80;98374;-83
2022/08/05 06:59:53;;;;;;;10.68;5.20;;;;;;;29.94;43.74;100214.51;3588606;80;99012;-85
2022/08/05 07:04:54;;;;;;;8.10;4.72;;;;;;;29.77;43.37;100213.08;3583706;81;99029;-85
2022/08/05 07:09:55;;;;;;;10.10;5.47;;;;;;;29.43;43.46;100209.99;3590722;80;98822;-84
2022/08/05 07:20:16;;;;;;;9.53;5.00;;;;;;;29.06;44.10;100201.49;3579517;82;98845;-83
2022/08/05 07:25:17;;;;;;;10.20;5.03;;;;;;;29.04;44.00;100200.58;3580002;80;98592;-81
2022/08/05 07:30:18;;;;;;;10.88;6.12;;;;;;;28.98;44.37;100201.86;3574279;81;98764;-82
2022/08/05 07:35:19;;;;;;;12.98;6.12;;;;;;;29.00;44.06;100200.70;3580537;81;98944;-82
2022/08/05 07:40:20;;;;;;;10.65;5.78;;;;;;;28.89;44.29;100195.70;3559999;80;99060;-80
2022/08/05 07:45:22;;;;;;;10.63;6.00;;;;;;;28.92;44.59;100199.58;3587363;80;98989;-83
2022/08/05 07:50:23;;;;;;;13.20;6.28;;;;;;;28.92;44.35;100199.58;3581222;81;98728;-85
2022/08/05 07:55:25;;;;;;;8.55;5.08;;;;;;;28.96;44.32;100200.13;3582262;80;98876;-82
2022/08/05 08:00:26;;;;;;;10.93;5.50;;;;;;;29.03;44.35;100203.28;3568607;81;98801;-84
2022/08/05 08:05:27;;;;;;;14.98;6.17;;;;;;;29.10;44.44;100205.63;3576306;80;99112;-84
2022/08/05 08:10:29;;;;;;;12.45;5.62;;;;;;;29.19;43.99;100206.83;3569156;82;99083;-83
2022/08/05 08:15:30;;;;;;;15.53;6.17;;;;;;;29.29;44.49;100206.74;3597786;80;98976;-84
2022/08/05 08:20:31;;;;;;;11.33;6.10;;;;;;;29.65;43.95;100205.06;3594481;82;98757;-82
2022/08/05 08:25:33;;;;;;;8.95;5.65;;;;;;;30.16;43.75;100201.13;3601329;80;98820;-82
2022/08/05 08:30:35;;;;;;;10.40;5.17;;;;;;;30.77;43.43;100193.95;3587123;81;98666;-82
2022/08/05 08:35:37;;;;;;;11.38;5.58;;;;;;;31.61;43.10;100185.97;3593745;80;98953;-89
2022/08/05 08:40:39;;;;;;;9.35;4.92;;;;;;;32.55;41.28;100185.98;3595769;80;99035;-83
2022/08/05 08:45:40;;;;;;;14.95;5.90;;;;;;;33.13;40.31;100177.18;3610519;80;98725;-85
2022/08/05 08:50:43;;;;;;;11.45;5.55;;;;;;;33.92;38.88;100177.09;3594194;80;99059;-85
2022/08/05 08:55:45;;;;;;;9.33;5.63;;;;;;;34.54;38.54;100180.45;3604489;81;98687;-86
2022/08/05 09:00:47;;;;;;;10.15;5.25;;;;;;;35.23;37.54;100175.93;3595328;81;98689;-88
2022/08/05 09:05:48;;;;;;;7.95;5.15;;;;;;;35.85;35.43;100176.13;3608862;80;99025;-84
2022/08/05 09:10:51;;;;;;;8.90;5.67;;;;;;;36.57;35.82;100184.39;3593612;81;98926;-86
2022/08/05 09:15:52;;;;;;;8.07;5.43;;;;;;;37.16;34.00;100179.66;3583273;80;98715;-84
2022/08/05 09:20:54;;;;;;;10.50;5.60;;;;;;;37.62;33.43;100169.89;3577520;80;99265;-83
2022/08/05 09:26:12;;;;;;;10.38;5.60;;;;;;;38.23;33.03;100164.33;3573380;81;25836;-85
2022/08/05 09:31:15;;;;;;;9.98;6.30;;;;;;;38.79;32.03;100163.23;3579573;80;99182;-85
2022/08/05 09:36:17;;;;;;;8.25;5.20;;;;;;;39.27;31.41;100154.75;3579633;80;98604;-86
2022/08/05 09:41:18;;;;;;;8.15;6.00;;;;;;;40.03;30.82;100154.42;3576352;81;98821;-83
2022/08/05 09:46:32;;;;;;;11.78;5.62;;;;;;;40.40;30.09;100149.05;3584515;80;99210;-83
2022/08/05 09:51:38;;;;;;;12.58;6.17;;;;;;;40.82;29.34;100151.24;3574064;81;99151;-86
2022/08/05 09:56:45;;;;;;;8.10;5.67;;;;;;;40.52;28.63;100153.63;3588257;81;27376;-84
2022/08/05 10:01:46;;;;;;;11.12;5.60;;;;;;;40.65;28.85;100142.55;3587266;80;98791;-85
2022/08/05 10:06:56;;;;;;;10.23;5.57;;;;;;;40.96;28.53;100135.81;3583206;80;98909;-84
2022/08/05 10:12:09;;;;;;;14.10;6.47;;;;;;;41.34;28.52;100129.61;3575594;80;98682;-86
2022/08/05 10:17:14;;;;;;;;;;;;;;;41.98;27.19;100125.42;3581466;81;98968;-84
2022/08/05 10:22:16;;;;;;;10.55;5.75;;;;;;;41.60;25.88;100132.45;3581834;81;85053;-87
2022/08/05 10:27:18;;;;;;;9.65;5.20;;;;;;;41.02;27.21;100117.55;3589141;82;99299;-85
2022/08/05 10:32:19;;;;;;;7.63;5.90;;;;;;;41.05;27.36;100112.78;3575743;81;98589;-88
2022/08/05 10:37:20;;;;;;;8.50;5.60;;;;;;;40.68;27.43;100099.53;3583800;81;97790;-85
2022/08/05 10:42:24;;;;;;;10.43;5.62;;;;;;;40.59;27.44;100103.09;3578237;81;98748;-87
2022/08/05 10:47:32;;;;;;;12.90;6.08;;;;;;;40.24;27.71;100095.73;3584999;81;99016;-86
2022/08/05 10:52:51;;;;;;;11.25;5.83;;;;;;;40.00;27.44;100101.51;3584613;81;99200;-84
2022/08/05 10:58:08;;;;;;;13.32;5.70;;;;;;;39.94;27.59;100102.43;3586814;80;99044;-84
2022/08/05 11:03:11;;;;;;;11.97;6.50;;;;;;;39.80;27.89;100092.53;3562957;81;99033;-85
2022/08/05 11:08:12;;;;;;;9.70;6.03;;;;;;;39.60;27.71;100093.64;3586317;81;27420;-85
2022/08/05 11:13:18;;;;;;;13.62;5.97;;;;;;;39.68;28.15;100087.91;3581826;80;98844;-85
2022/08/05 11:18:29;;;;;;;8.80;5.95;;;;;;;39.83;27.36;100092.81;3587918;80;98963;-87
2022/08/05 11:23:52;;;;;;;8.60;5.92;;;;;;;39.78;27.70;100082.28;3579485;80;98826;-82
2022/08/05 11:28:56;;;;;;;8.50;6.22;;;;;;;40.14;27.68;100076.12;3594796;80;98863;-85
2022/08/05 11:34:04;;;;;;;9.23;5.78;;;;;;;40.03;27.43;100068.60;3595362;81;98839;-87
2022/08/05 11:39:07;;;;;;;10.50;5.75;;;;;;;39.99;27.49;100072.60;3600414;80;98763;-80
2022/08/05 11:44:14;;;;;;;;;;;;;;;39.87;28.26;100080.17;3594391;81;98453;-81
2022/08/05 11:49:21;;;;;;;10.28;5.67;;;;;;;40.20;27.72;100075.89;3580402;80;84117;-81
2022/08/05 11:54:33;;;;;;;8.78;5.53;;;;;;;39.95;28.41;100079.45;3579877;80;99188;-82
2022/08/05 11:59:33;;;;;;;8.73;5.92;;;;;;;40.13;28.07;100076.05;3573396;80;99207;-82
2022/08/05 12:04:42;;;;;;;10.30;6.28;;;;;;;40.16;27.51;100074.09;3570589;80;99277;-82
2022/08/05 12:09:53;;;;;;;10.35;5.33;;;;;;;40.41;26.79;100071.91;3565136;80;98941;-80
2022/08/05 12:14:55;;;;;;;8.40;5.75;;;;;;;40.34;26.89;100074.20;3578369;81;99010;-85
2022/08/05 12:19:56;;;;;;;10.28;5.10;;;;;;;40.31;26.53;100069.63;3574482;80;98935;-83
2022/08/05 12:24:57;;;;;;;7.78;4.83;;;;;;;40.46;25.84;100063.01;3629837;80;98780;-81
2022/08/05 12:30:03;;;;;;;8.63;5.25;;;;;;;40.47;26.21;100052.99;3568411;81;106276;-82
2022/08/05 12:35:05;;;;;;;6.45;4.30;;;;;;;40.63;26.28;100055.82;3590133;81;99345;-82
2022/08/05 12:40:10;;;;;;;7.13;4.93;;;;;;;40.81;25.24;100049.36;3592955;80;98835;-81
2022/08/05 12:45:12;;;;;;;10.53;4.37;;;;;;;40.73;24.58;100037.13;3593099;80;98819;-81
2022/08/05 12:50:15;;;;;;;6.80;4.43;;;;;;;40.48;24.32;100040.79;3589422;80;99072;-83
2022/08/05 12:55:23;;;;;;;6.35;4.40;;;;;;;40.26;24.55;100041.11;3581887;81;97782;-85
2022/08/05 13:00:28;;;;;;;5.62;3.95;;;;;;;40.02;23.56;100029.60;3580739;80;98716;-85
2022/08/05 13:05:30;;;;;;;6.25;4.05;;;;;;;39.40;23.24;100034.23;3598695;80;99122;-82
2022/08/05 13:10:32;;;;;;;4.92;3.72;;;;;;;39.26;23.70;100029.41;3592658;80;98946;-80
2022/08/05 13:15:33;;;;;;;9.45;4.15;;;;;;;39.31;23.76;100031.98;3580375;81;98817;-80
2022/08/05 13:20:34;;;;;;;6.47;4.10;;;;;;;39.14;23.70;100026.89;3580729;81;98852;-80
2022/08/05 13:25:35;;;;;;;8.10;4.08;;;;;;;39.18;24.13;100016.41;3568142;81;99280;-82
2022/08/05 13:30:36;;;;;;;11.35;3.72;;;;;;;38.98;23.49;100000.98;3569744;82;98652;-79
2022/08/05 13:35:38;;;;;;;6.67;4.17;;;;;;;38.95;23.51;100007.89;3566523;81;99130;-79
2022/08/05 13:40:38;;;;;;;6.80;4.00;;;;;;;39.08;23.93;99999.67;3562899;82;98765;-83
2022/08/05 13:45:39;;;;;;;15.75;4.33;;;;;;;39.24;23.75;99999.66;3573351;81;98606;-80
2022/08/05 13:50:40;;;;;;;9.88;4.67;;;;;;;39.29;24.09;99992.25;3570583;81;98893;-82
2022/08/05 13:55:41;;;;;;;5.95;4.30;;;;;;;39.10;23.52;99991.98;3566041;82;98531;-80
2022/08/05 14:00:42;;;;;;;9.30;4.53;;;;;;;38.84;23.87;99975.22;3573111;81;98768;-81
2022/08/05 14:05:43;;;;;;;8.10;4.28;;;;;;;38.81;24.26;99966.99;3588080;81;98888;-82
2022/08/05 14:10:45;;;;;;;6.42;3.92;;;;;;;38.67;24.13;99975.78;3571033;81;98587;-81
2022/08/05 14:15:46;;;;;;;6.53;4.47;;;;;;;38.31;24.38;99972.47;3578808;80;98722;-82
2022/08/05 14:20:47;;;;;;;6.85;4.10;;;;;;;38.17;24.07;99965.41;3586499;80;98807;-79
2022/08/05 14:25:48;;;;;;;9.48;4.05;;;;;;;37.89;24.59;99967.86;3576790;80;98349;-81
2022/08/05 14:30:49;;;;;;;10.20;4.05;;;;;;;37.93;24.44;99958.84;3588708;80;98491;-84
2022/08/05 14:35:51;;;;;;;8.45;4.80;;;;;;;37.90;24.42;99962.86;3599848;80;98947;-81
2022/08/05 14:40:52;;;;;;;6.65;4.60;;;;;;;37.78;24.64;99955.98;3594541;81;98613;-80
2022/08/05 14:45:53;;;;;;;8.35;4.20;;;;;;;37.54;25.01;99955.13;3597884;80;98670;-81
2022/08/05 14:50:54;;;;;;;7.67;4.25;;;;;;;37.40;25.08;99959.52;3593811;80;98673;-82
2022/08/05 14:55:55;;;;;;;8.30;4.40;;;;;;;37.20;25.30;99960.45;3599457;80;25944;-82
2022/08/05 15:00:56;;;;;;;8.73;4.60;;;;;;;36.90;25.45;99963.27;3586254;81;98534;-82
2022/08/05 15:05:58;;;;;;;10.45;4.85;;;;;;;36.73;25.83;99959.48;3597173;81;97791;-81
2022/08/05 15:10:59;;;;;;;6.62;4.60;;;;;;;36.62;25.91;99956.92;3594650;80;98862;-80
2022/08/05 15:16:00;;;;;;;7.87;5.42;;;;;;;36.42;26.21;99949.88;3579459;81;97843;-84
2022/08/05 15:21:01;;;;;;;6.60;4.30;;;;;;;36.34;26.37;99940.50;3562441;80;98686;-80
2022/08/05 15:26:03;;;;;;;6.57;4.60;;;;;;;36.25;26.61;99936.72;3584137;81;26489;-78
2022/08/05 15:31:04;;;;;;;7.42;4.15;;;;;;;36.16;26.58;99938.64;3551038;81;98945;-82
2022/08/05 15:36:06;;;;;;;6.62;3.90;;;;;;;36.02;26.79;99939.43;3572110;80;99314;-80
2022/08/05 15:41:07;;;;;;;9.58;4.75;;;;;;;35.81;26.84;99943.05;3570211;81;98845;-81
2022/08/05 15:46:08;;;;;;;10.35;4.42;;;;;;;35.62;26.86;99941.06;3579480;81;97893;-80
2022/08/05 15:51:09;;;;;;;6.87;4.33;;;;;;;35.48;27.17;99937.42;3493579;83;98947;-82
2022/08/05 15:56:10;;;;;;;12.68;7.78;;;;;;;35.40;27.95;99981.72;3569090;81;25918;-84
2022/08/05 16:01:12;;;;;;;14.18;7.85;;;;;;;35.26;30.18;99971.66;3564191;80;99007;-88
2022/08/05 16:06:14;;;;;;;14.43;7.45;;;;;;;34.98;31.67;99995.86;3578819;81;98781;-81
2022/08/05 16:11:15;;;;;;;11.68;7.33;;;;;;;34.73;32.47;100018.91;3565975;80;98816;-88
2022/08/05 16:16:16;;;;;;;13.62;7.97;;;;;;;34.49;33.04;100010.59;3585131;80;98713;-84
2022/08/05 16:21:17;;;;;;;11.95;7.17;;;;;;;34.33;33.72;100019.52;3567121;80;99096;-84
2022/08/05 16:26:18;;;;;;;10.15;7.42;;;;;;;34.14;34.12;100040.25;3577986;80;26438;-83
2022/08/05 16:31:19;;;;;;;16.10;7.80;;;;;;;33.98;34.69;100050.68;3580792;80;99110;-83
2022/08/05 16:36:21;;;;;;;16.00;6.97;;;;;;;33.71;35.53;100061.91;3581699;80;98869;-83
2022/08/05 16:41:22;;;;;;;13.28;6.50;;;;;;;33.38;36.00;100072.45;3582410;80;99027;-86
2022/08/05 16:46:23;;;;;;;11.80;5.80;;;;;;;33.09;36.50;100087.65;3590566;80;98925;-84
2022/08/05 16:51:25;;;;;;;9.08;5.95;;;;;;;32.73;37.26;100090.56;3582228;80;99638;-83
2022/08/05 16:56:29;;;;;;;10.25;6.20;;;;;;;32.47;37.80;100101.00;3590746;81;25906;-87
2022/08/05 17:01:30;;;;;;;8.57;5.27;;;;;;;32.23;38.24;100118.83;3579985;80;99345;-81
2022/08/05 17:06:31;;;;;;;7.72;5.22;;;;;;;31.98;38.66;100115.07;3589516;80;98623;-85
2022/08/05 17:11:33;;;;;;;8.65;4.37;;;;;;;31.80;38.75;100137.08;3583497;80;98874;-84
2022/08/05 17:16:34;;;;;;;7.10;4.22;;;;;;;31.58;38.96;100154.28;3579186;81;98868;-84
2022/08/05 17:21:36;;;;;;;12.03;4.47;;;;;;;31.20;39.33;100164.61;3567043;81;98925;-81
2022/08/05 17:26:37;;;;;;;7.60;4.30;;;;;;;30.96;40.12;100187.83;3583430;81;25921;-80
2022/08/05 17:31:39;;;;;;;7.85;4.05;;;;;;;30.60;42.15;100205.34;3578117;80;98804;-80
2022/08/05 17:36:40;;;;;;;5.90;4.12;;;;;;;30.33;43.02;100214.67;3580077;80;98681;-79
2022/08/05 17:41:41;;;;;;;6.92;4.10;;;;;;;30.12;43.91;100233.89;3570784;80;98842;-79
2022/08/05 17:46:42;;;;;;;8.88;4.40;;;;;;;29.69;46.49;100226.20;3584085;81;99328;-79
2022/08/05 17:51:43;;;;;;;6.00;3.98;;;;;;;29.22;48.25;100216.37;3570378;80;98776;-79
2022/08/05 17:56:44;;;;;;;7.00;4.17;;;;;;;28.53;49.88;100204.26;3578760;81;26572;-80
2022/08/05 18:01:45;;;;;;;7.83;4.95;;;;;;;28.18;51.34;100210.15;3576892;81;98800;-79
2022/08/05 18:06:47;;;;;;;13.22;5.58;;;;;;;28.14;51.87;100222.36;3580443;81;98613;-79
2022/08/05 18:11:48;;;;;;;8.28;4.97;;;;;;;27.90;52.79;100218.28;3587874;80;99067;-80
2022/08/05 18:16:50;;;;;;;13.00;5.45;;;;;;;27.68;53.58;100219.45;3586815;80;98827;-79
2022/08/05 18:21:51;;;;;;;8.70;5.12;;;;;;;27.48;54.20;100235.82;3583874;80;99249;-79
2022/08/05 18:26:53;;;;;;;7.40;5.17;;;;;;;27.38;54.87;100244.31;3590313;80;26464;-79
2022/08/05 18:31:54;;;;;;;9.93;5.47;;;;;;;27.32;55.18;100243.47;3589678;80;98671;-79
2022/08/05 18:36:55;;;;;;;8.45;5.62;;;;;;;27.22;55.94;100240.64;3584593;81;98977;-79
2022/08/05 18:41:56;;;;;;;9.10;5.45;;;;;;;27.13;56.20;100247.81;3566629;80;99343;-80
2022/08/05 18:46:58;;;;;;;7.97;6.15;;;;;;;26.96;56.74;100247.44;3589021;80;98877;-79
2022/08/05 18:57:19;;;;;;;9.03;6.62;;;;;;;26.64;58.00;100253.54;3574431;80;98789;-80
2022/08/05 19:02:20;;;;;;;9.35;5.80;;;;;;;26.55;58.77;100249.44;3579343;80;98717;-81
2022/08/05 19:07:21;;;;;;;11.33;6.28;;;;;;;26.58;58.85;100261.77;3586259;80;98626;-81
2022/08/05 19:12:22;;;;;;;10.40;6.15;;;;;;;26.55;58.83;100266.38;3584884;81;99359;-83
2022/08/05 19:17:24;;;;;;;9.05;5.90;;;;;;;26.52;59.49;100278.61;3590337;80;99453;-85
2022/08/05 19:22:25;;;;;;;11.15;6.28;;;;;;;26.41;59.72;100289.72;3599745;80;98812;-83
2022/08/05 19:27:27;;;;;;;9.85;5.85;;;;;;;26.33;59.97;100292.77;3601300;81;98913;-82
2022/08/05 19:32:28;;;;;;;9.30;5.70;;;;;;;26.30;60.33;100303.64;3595298;80;98883;-82
2022/08/05 19:37:30;;;;;;;12.43;5.85;;;;;;;26.33;60.68;100313.94;3598084;80;98686;-81
2022/08/05 19:42:31;;;;;;;9.00;5.60;;;;;;;26.21;60.94;100322.07;3592161;80;98749;-83
2022/08/05 19:47:35;;;;;;;7.83;4.65;;;;;;;26.12;60.94;100308.08;3603224;81;98814;-81
2022/08/05 19:52:36;;;;;;;8.98;4.97;;;;;;;25.97;60.94;100324.83;3590399;80;99212;-82
2022/08/05 19:57:39;;;;;;;9.43;4.33;;;;;;;25.87;61.43;100323.31;3599388;80;99224;-81
2022/08/05 20:02:40;;;;;;;7.45;5.00;;;;;;;25.70;61.83;100329.27;3590819;81;98534;-81
2022/08/05 20:07:41;;;;;;;10.23;5.10;;;;;;;25.62;62.22;100324.63;3599610;81;98649;-82
2022/08/05 20:12:43;;;;;;;8.93;6.22;;;;;;;25.51;62.89;100324.39;3596713;80;98775;-83
2022/08/05 20:17:44;;;;;;;9.55;5.80;;;;;;;25.46;62.94;100325.70;3589939;80;98749;-82
2022/08/05 20:22:45;;;;;;;10.40;5.47;;;;;;;25.36;63.61;100321.38;3586145;81;98835;-82
2022/08/05 20:27:46;;;;;;;9.78;5.92;;;;;;;25.34;63.83;100335.19;3590452;81;99472;-81
2022/08/05 20:32:47;;;;;;;9.15;5.80;;;;;;;25.29;64.07;100342.88;3576086;80;98798;-81
2022/08/05 20:37:48;;;;;;;9.70;6.08;;;;;;;25.24;64.41;100358.36;3586150;80;98512;-83
2022/08/05 20:42:49;;;;;;;9.10;5.47;;;;;;;25.17;65.14;100363.59;3584334;80;99001;-81
2022/08/05 20:47:50;;;;;;;9.65;5.90;;;;;;;24.85;65.46;100325.72;3583413;80;98958;-82
2022/08/05 20:52:51;;;;;;;8.75;5.78;;;;;;;25.04;66.02;100371.46;3576490;81;98947;-84
2022/08/05 20:57:52;;;;;;;9.58;5.60;;;;;;;25.02;65.97;100383.20;3583255;80;98834;-82
2022/08/05 21:02:54;;;;;;;9.28;5.70;;;;;;;24.90;66.86;100387.01;3578669;80;98420;-82
2022/08/05 21:07:55;;;;;;;10.50;5.75;;;;;;;24.80;66.89;100395.33;3585382;81;33263;-82
2022/08/05 21:12:56;;;;;;;9.25;5.30;;;;;;;24.72;67.34;100395.53;3581277;80;98891;-83
2022/08/05 21:17:57;;;;;;;9.58;5.72;;;;;;;24.67;67.94;100400.39;3581421;81;98470;-83
2022/08/05 21:22:59;;;;;;;9.45;5.55;;;;;;;24.61;67.92;100408.53;3579398;81;98875;-83
2022/08/05 21:28:01;;;;;;;11.68;5.67;;;;;;;24.56;68.33;100404.30;3586572;80;98764;-83
2022/08/05 21:33:03;;;;;;;9.13;5.33;;;;;;;24.57;68.37;100406.50;3577773;81;98970;-83
2022/08/05 21:38:04;;;;;;;8.08;5.33;;;;;;;24.57;68.40;100418.52;3586615;80;33849;-83
2022/08/05 21:43:05;;;;;;;9.03;5.28;;;;;;;24.56;68.33;100435.87;3580948;80;98482;-82
2022/08/05 21:48:06;;;;;;;10.85;5.95;;;;;;;24.52;68.80;100456.38;3589529;81;98727;-81
2022/08/05 21:53:07;;;;;;;13.85;6.50;;;;;;;24.44;69.14;100460.75;3590830;81;99458;-82
2022/08/05 21:58:08;;;;;;;8.30;5.85;;;;;;;24.38;69.42;100459.81;3594637;81;98977;-82
2022/08/05 22:03:13;;;;;;;9.33;5.58;;;;;;;24.28;70.24;100470.91;3567908;82;99161;-83
2022/08/05 22:08:12;;;;;;;8.48;5.87;;;;;;;24.19;70.53;100478.73;3596680;82;33240;-82
2022/08/05 22:13:14;;;;;;;9.35;5.45;;;;;;;24.21;70.54;100489.52;3604528;80;98608;-82
2022/08/05 22:18:14;;;;;;;8.95;5.20;;;;;;;24.19;71.11;100505.45;3595969;82;99191;-82
2022/08/05 22:28:35;;;;;;;8.18;5.05;;;;;;;24.27;71.06;100512.34;3591897;82;98921;-81
2022/08/05 22:33:36;;;;;;;9.23;5.15;;;;;;;24.22;71.54;100501.71;3577869;81;98848;-84
2022/08/05 22:38:37;;;;;;;11.38;6.50;;;;;;;24.18;71.70;100498.88;3582886;81;32505;-82
2022/08/05 22:43:41;;;;;;;12.90;5.70;;;;;;;24.22;71.77;100508.74;3499395;83;98836;-84
2022/08/05 22:48:43;;;;;;;9.00;5.65;;;;;;;24.17;71.94;100509.97;3581417;81;99096;-82
2022/08/05 22:53:44;;;;;;;7.67;5.33;;;;;;;24.16;71.95;100521.07;3582023;81;98940;-82
2022/08/05 22:58:45;;;;;;;9.05;5.65;;;;;;;24.13;72.21;100516.40;3588177;82;98782;-82
2022/08/05 23:03:46;;;;;;;9.28;6.10;;;;;;;24.10;72.63;100515.91;3588138;81;98752;-83
2022/08/05 23:08:48;;;;;;;10.60;5.62;;;;;;;24.08;72.48;100527.62;3573032;80;32909;-82
2022/08/05 23:13:49;;;;;;;8.75;5.08;;;;;;;24.07;72.75;100533.70;3581037;80;98663;-81
2022/08/05 23:18:49;;;;;;;10.05;6.20;;;;;;;24.08;72.89;100518.42;3584830;80;98663;-81
2022/08/05 23:23:50;;;;;;;10.50;5.12;;;;;;;24.05;73.11;100509.50;3581627;81;99346;-82
2022/08/05 23:28:51;;;;;;;8.98;5.97;;;;;;;23.92;73.32;100518.70;3638164;79;99365;-82
2022/08/05 23:33:52;;;;;;;8.75;5.47;;;;;;;23.95;73.27;100543.06;3609062;80;98835;-82
2022/08/05 23:38:53;;;;;;;9.05;5.87;;;;;;;23.92;73.40;100567.26;3616674;80;30373;-81
2022/08/05 23:43:54;;;;;;;10.48;6.33;;;;;;;23.84;73.77;100565.97;3600211;80;99159;-82